Latest Weather Observations for Cape Byron

IDN60801

Issued at 9:32 am EST Wednesday 25 May 2016 (issued every 30 minutes, with the page automatically refreshed every 10 minutes)

About weather observations | Map of weather stations | Latest weather observations for NSW | Other Formats
Station Details ID: 058216 Name: CAPE BYRON AWS Lat: -28.64 Lon: 153.64 Height: 95.0 m
Data from the previous 72 hours. | See also: Recent months at Cape Byron
Date/Time
EST
Temp
°C
App
Temp
°C
Dew
Point
Rel
Hum
%
Delta-T
°C
Wind Press
QNH
hPa
Press
MSL
hPa
Rain
since 9 am
mm
Dir
 
Spd
km/h
Gust
km/h
Spd
kts
Gust
kts
25/09:30am 17.4 11.8 -0.3 30 7.6 WSW 19 24 10 13 1018.5 1018.3 0.0
25/09:00am 16.8 10.1 -1.3 29 7.6 WSW 24 30 13 16 1018.5 1018.3 0.0
25/08:30am 16.3 8.6 -2.7 27 7.7 WSW 28 33 15 18 1018.5 1018.3 0.0
25/08:00am 16.0 8.3 -3.0 27 7.6 WSW 28 33 15 18 1018.1 1017.8 0.0
25/07:30am 15.8 8.1 -2.6 28 7.4 WSW 28 35 15 19 1017.8 1017.5 0.0
25/07:00am 15.9 7.4 -3.0 27 7.6 WSW 32 37 17 20 1017.5 1017.2 0.0
25/06:30am 15.2 7.1 -3.2 28 7.3 WSW 30 37 16 20 1017.2 1016.9 0.0
25/06:00am 15.7 7.0 -3.2 27 7.5 WSW 33 43 18 23 1017.0 1016.7 0.0
25/05:30am 15.9 7.2 -3.0 27 7.6 WSW 33 44 18 24 1016.6 1016.3 0.0
25/05:00am 15.6 7.0 -2.3 29 7.3 WSW 33 39 18 21 1016.5 1016.2 0.0
25/04:30am 15.9 7.5 -2.6 28 7.5 WSW 32 41 17 22 1016.4 1016.1 0.0
25/04:00am 15.9 7.5 -2.6 28 7.5 WSW 32 39 17 21 1016.1 1015.9 0.0
25/03:30am 16.0 8.0 -2.0 29 7.4 WSW 30 39 16 21 1016.1 1015.9 0.0
25/03:00am 16.8 9.2 -1.8 28 7.7 WSW 28 39 15 21 1016.0 1015.8 0.0
25/02:30am 17.0 9.5 -1.6 28 7.8 WSW 28 35 15 19 1016.3 1016.0 0.0
25/02:00am 17.0 9.5 -1.1 29 7.6 W 28 33 15 18 1016.4 1016.1 0.0
25/01:30am 17.1 11.1 -1.5 28 7.8 W 20 28 11 15 1016.7 1016.4 0.0
25/01:00am 16.4 10.8 0.1 33 7.0 WNW 19 24 10 13 1016.8 1016.5 0.0
25/12:30am 16.2 13.2 3.9 44 5.7 NW 9 15 5 8 1016.7 1016.4 0.0
25/12:00am 17.0 14.2 6.8 51 5.1 NNW 11 20 6 11 1016.7 1016.4 0.0
 
Date/Time
EST
Temp
°C
App
Temp
°C
Dew
Point
Rel
Hum
%
Delta-T
°C
Wind Press
QNH
hPa
Press
MSL
hPa
Rain
since 9 am
mm
Dir
 
Spd
km/h
Gust
km/h
Spd
kts
Gust
kts
24/11:30pm 16.3 14.6 9.9 66 3.4 NW 9 15 5 8 1017.1 1016.8 0.0
24/11:00pm 15.8 14.3 10.6 71 2.8 NW 9 15 5 8 1016.9 1016.6 0.0
24/10:30pm 16.3 14.9 12.3 77 2.2 NW 11 17 6 9 1016.9 1016.6 0.0
24/10:00pm 16.0 14.0 11.6 75 2.4 NNW 13 22 7 12 1017.0 1016.7 0.0
24/09:30pm 15.9 14.5 10.9 72 2.7 NW 9 13 5 7 1016.9 1016.6 0.0
24/09:00pm 16.4 15.7 12.0 75 2.4 N 7 11 4 6 1016.9 1016.6 0.0
24/08:30pm 15.7 14.5 10.2 70 2.9 N 7 11 4 6 1016.9 1016.6 0.0
24/08:00pm 16.1 15.4 12.1 77 2.2 WNW 7 11 4 6 1016.8 1016.5 0.0
24/07:30pm 15.7 13.3 10.2 70 2.9 WNW 13 17 7 9 1016.9 1016.6 0.0
24/07:00pm 17.1 14.4 7.5 53 4.8 NW 11 17 6 9 1016.8 1016.5 0.0
24/06:30pm 19.6 17.4 6.4 42 6.6 NNE 7 9 4 5 1016.6 1016.3 0.0
24/06:00pm 19.4 18.1 7.5 46 6.1 ENE 4 7 2 4 1016.5 1016.2 0.0
24/05:30pm 19.1 17.1 7.2 46 6.0 E 7 11 4 6 1016.1 1015.9 0.0
24/05:00pm 19.1 16.1 7.8 48 5.8 ESE 13 17 7 9 1015.9 1015.7 0.0
24/04:30pm 19.8 15.9 7.2 44 6.4 SE 17 22 9 12 1015.8 1015.6 0.0
24/04:00pm 20.0 16.2 7.4 44 6.5 SSE 17 22 9 12 1016.0 1015.8 0.0
24/03:30pm 20.4 15.5 7.1 42 6.8 S 22 30 12 16 1016.1 1015.9 0.0
24/03:00pm 20.4 15.6 7.4 43 6.7 S 22 30 12 16 1016.0 1015.8 0.0
24/02:30pm 20.4 15.2 7.4 43 6.7 S 24 30 13 16 1016.0 1015.8 0.0
24/02:00pm 20.5 15.3 7.2 42 6.8 S 24 30 13 16 1016.1 1015.9 0.0
24/01:30pm 20.5 15.1 8.2 45 6.4 S 26 32 14 17 1016.0 1015.8 0.0
24/01:00pm 20.7 15.1 7.3 42 6.9 S 26 32 14 17 1016.1 1015.9 0.0
24/12:30pm 20.9 16.0 8.5 45 6.5 S 24 32 13 17 1016.4 1016.1 0.0
24/12:00pm 20.9 16.1 7.2 41 7.0 SSW 22 28 12 15 1016.9 1016.6 0.0
24/11:30am 21.0 16.6 7.3 41 7.1 SSW 20 28 11 15 1017.6 1017.3 0.0
24/11:00am 20.7 15.7 6.3 39 7.3 SSW 22 30 12 16 1018.2 1017.9 0.0
24/10:30am 20.5 15.4 6.1 39 7.2 SW 22 33 12 18 1018.7 1018.5 0.0
24/10:00am 20.0 14.4 5.6 39 7.1 SW 24 35 13 19 1018.8 1018.6 0.0
24/09:30am 19.5 14.5 6.3 42 6.6 SW 22 33 12 18 1018.8 1018.6 0.0
24/09:00am 18.9 13.8 6.1 43 6.3 SW 22 32 12 17 1018.8 1018.6 0.0
24/08:30am 18.4 13.9 6.9 47 5.8 WSW 20 30 11 16 1018.5 1018.3 0.0
24/08:00am 18.1 12.5 7.2 49 5.5 SW 26 35 14 19 1018.1 1017.8 0.0
24/07:30am 17.5 11.8 8.4 55 4.7 SW 28 35 15 19 1017.9 1017.6 0.0
24/07:00am 17.3 11.1 9.5 60 4.1 SW 32 39 17 21 1017.5 1017.2 0.0
24/06:30am 17.8 11.2 9.9 60 4.2 SW 35 41 19 22 1017.2 1016.9 0.0
24/06:00am 18.2 11.6 10.1 59 4.3 SW 35 43 19 23 1016.9 1016.6 0.0
24/05:30am 18.6 13.6 10.9 61 4.2 SW 28 35 15 19 1016.6 1016.3 0.0
24/05:00am 18.9 14.0 11.2 61 4.2 SW 28 39 15 21 1016.4 1016.1 0.0
24/04:30am 19.4 14.1 11.2 59 4.5 SW 30 37 16 20 1016.3 1016.0 0.0
24/04:00am 20.4 14.7 11.1 55 5.1 SW 32 37 17 20 1015.9 1015.7 0.0
24/03:30am 20.3 15.3 11.0 55 5.1 SW 28 35 15 19 1015.9 1015.7 0.0
24/03:00am 22.5 17.3 10.3 46 6.7 W 28 39 15 21 1015.4 1015.2 0.0
24/02:30am 22.7 18.3 10.5 46 6.7 W 24 30 13 16 1015.3 1015.1 0.0
24/02:00am 21.8 18.0 11.2 51 5.9 W 22 28 12 15 1015.2 1015.0 0.0
24/01:30am 21.7 18.0 11.4 52 5.7 WNW 22 24 12 13 1015.2 1015.0 0.0
24/01:00am 21.8 17.7 11.5 52 5.8 WNW 24 28 13 15 1015.1 1014.9 0.0
24/12:30am 20.0 17.4 13.9 68 3.5 WNW 20 24 11 13 1015.3 1015.1 0.0
24/12:00am 19.8 18.3 16.3 80 2.1 WNW 19 20 10 11 1015.4 1015.2 0.0
 
Date/Time
EST
Temp
°C
App
Temp
°C
Dew
Point
Rel
Hum
%
Delta-T
°C
Wind Press
QNH
hPa
Press
MSL
hPa
Rain
since 9 am
mm
Dir
 
Spd
km/h
Gust
km/h
Spd
kts
Gust
kts
23/11:30pm 19.4 19.5 17.5 89 1.2 NW 13 17 7 9 1015.5 1015.3 0.0
23/11:00pm 20.0 20.7 18.0 88 1.2 NNW 11 15 6 8 1015.6 1015.4 0.0
23/10:30pm 20.6 20.6 18.2 86 1.5 NNW 15 20 8 11 1015.6 1015.4 0.0
23/10:00pm 21.0 20.8 18.4 85 1.6 NNW 17 22 9 12 1015.8 1015.6 0.0
23/09:30pm 20.8 21.7 18.4 86 1.5 NNW 11 15 6 8 1015.9 1015.7 0.0
23/09:00pm 21.2 21.7 18.4 84 1.8 NNW 13 20 7 11 1015.9 1015.7 0.0
23/08:30pm 21.4 21.9 18.4 83 1.9 N 13 19 7 10 1016.1 1015.9 0.0
23/08:00pm 21.5 22.0 18.3 82 2.0 N 13 19 7 10 1016.1 1015.9 0.0
23/07:30pm 21.7 22.3 18.5 82 2.0 N 13 19 7 10 1016.0 1015.8 0.0
23/07:00pm 21.7 22.8 18.9 84 1.8 NNW 11 20 6 11 1015.8 1015.6 0.0
23/06:30pm 22.2 22.1 19.6 85 1.7 N 19 24 10 13 1015.6 1015.4 0.0
23/06:00pm 22.5 21.8 19.5 83 1.9 N 22 32 12 17 1015.6 1015.4 0.0
23/05:30pm 22.5 21.8 19.5 83 1.9 N 22 32 12 17 1015.4 1015.2 0.0
23/05:00pm 22.5 21.5 18.9 80 2.3 N 22 32 12 17 1015.2 1015.0 0.0
23/04:30pm 23.0 22.0 17.9 73 3.2 N 20 28 11 15 1015.3 1015.1 0.0
23/04:00pm 23.2 21.7 16.7 67 4.0 NNE 20 33 11 18 1015.0 1014.8 0.0
23/03:30pm 23.8 21.7 15.3 59 5.1 NNE 20 32 11 17 1014.8 1014.6 0.0
23/03:00pm 24.1 22.9 15.1 57 5.4 NNE 15 22 8 12 1015.0 1014.8 0.0
23/02:30pm 23.9 22.4 14.3 55 5.7 NNE 15 24 8 13 1015.3 1015.1 0.0
23/02:00pm 24.8 23.8 14.6 53 6.1 N 13 17 7 9 1015.5 1015.3 0.0
23/01:30pm 24.6 23.3 14.7 54 5.9 N 15 22 8 12 1015.8 1015.6 0.0
23/01:00pm 24.3 22.6 14.7 55 5.7 N 17 20 9 11 1016.0 1015.8 0.0
23/12:30pm 24.2 23.4 15.1 56 5.5 NNE 13 15 7 8 1016.4 1016.1 0.0
23/12:00pm 24.1 23.5 14.5 55 5.7 N 11 17 6 9 1017.3 1017.0 0.0
23/11:30am 23.6 23.1 14.9 58 5.2 NNE 11 15 6 8 1018.1 1017.8 0.0
23/11:00am 23.2 23.6 15.3 61 4.7 N 7 11 4 6 1018.9 1018.7 0.0
23/10:30am 23.1 23.0 13.8 55 5.4 N 7 9 4 5 1019.4 1019.2 0.0
23/10:00am 22.6 22.8 14.2 59 4.9 N 6 9 3 5 1019.9 1019.7 0.0
23/09:30am 22.0 22.9 16.1 69 3.6 N 6 9 3 5 1020.2 1020.0 0.0
23/09:00am 21.1 22.1 16.3 74 2.9 NNW 6 11 3 6 1020.3 1020.1 0.0
23/08:30am 18.8 19.0 15.7 82 1.8 WNW 9 11 5 6 1020.4 1020.2 0.0
23/08:00am 19.4 20.1 15.7 79 2.2 N 6 9 3 5 1020.4 1020.2 0.0
23/07:30am 18.3 19.0 15.6 84 1.6 NNW 6 9 3 5 1020.5 1020.3 0.0
23/07:00am 17.3 16.8 14.8 85 1.4 NW 11 15 6 8 1020.5 1020.3 0.0
23/06:30am 17.4 17.6 14.7 84 1.6 NW 7 11 4 6 1020.2 1020.0 0.0
23/06:00am 17.6 17.5 14.9 84 1.6 NW 9 11 5 6 1020.2 1020.0 0.0
23/05:30am 17.3 16.8 14.8 85 1.5 WNW 11 13 6 7 1020.0 1019.8 0.0
23/05:00am 17.6 17.5 14.9 84 1.6 NW 9 13 5 7 1019.9 1019.7 0.0
23/04:30am 17.7 16.9 15.0 84 1.6 W 13 15 7 8 1020.0 1019.8 0.0
23/04:00am 17.3 16.4 14.9 86 1.4 WNW 13 15 7 8 1020.1 1019.9 0.0
23/03:30am 17.0 16.2 15.0 88 1.2 WNW 13 17 7 9 1020.1 1019.9 0.0
23/03:00am 16.8 16.6 14.8 88 1.2 WNW 9 13 5 7 1020.0 1019.8 0.0
23/02:30am 17.1 16.6 14.9 87 1.3 WNW 11 15 6 8 1020.3 1020.1 0.0
23/02:00am 17.3 16.8 14.9 86 1.4 WNW 11 17 6 9 1020.6 1020.4 0.0
23/01:30am 17.7 17.3 15.1 85 1.5 WNW 11 15 6 8 1020.8 1020.6 0.0
23/01:00am 17.6 16.8 15.2 86 1.4 WNW 13 15 7 8 1021.0 1020.8 0.0
23/12:30am 17.7 16.9 15.1 85 1.5 WNW 13 17 7 9 1021.2 1021.0 0.0
23/12:00am 18.1 17.4 15.4 84 1.6 WNW 13 15 7 8 1021.6 1021.4 0.0
 
Date/Time
EST
Temp
°C
App
Temp
°C
Dew
Point
Rel
Hum
%
Delta-T
°C
Wind Press
QNH
hPa
Press
MSL
hPa
Rain
since 9 am
mm
Dir
 
Spd
km/h
Gust
km/h
Spd
kts
Gust
kts
22/11:30pm 18.4 18.4 15.3 82 1.8 NW 9 11 5 6 1021.9 1021.7 0.0
22/11:00pm 18.9 19.0 15.6 81 1.9 NNW 9 11 5 6 1022.0 1021.8 0.0
22/10:30pm 19.1 19.2 15.6 80 2.1 N 9 11 5 6 1022.2 1022.0 0.0
22/10:00pm 19.4 19.7 15.9 80 2.1 N 9 15 5 8 1022.3 1022.1 0.0
22/09:30pm 20.0 19.3 15.4 75 2.7 NE 13 17 7 9 1022.5 1022.3 0.0
22/09:00pm 20.1 19.1 15.5 75 2.7 ENE 15 19 8 10 1022.5 1022.3 0.0
22/08:30pm 19.8 19.1 15.4 76 2.6 ENE 13 19 7 10 1022.7 1022.5 0.0
22/08:00pm 19.7 18.7 14.5 72 3.0 E 13 19 7 10 1022.8 1022.6 0.0
22/07:30pm 19.7 19.1 14.5 72 3.0 E 11 17 6 9 1022.9 1022.7 0.0
22/07:00pm 20.0 20.1 14.4 70 3.3 ESE 7 13 4 7 1022.9 1022.7 0.0
22/06:30pm 20.0 19.7 14.4 70 3.3 E 9 17 5 9 1022.7 1022.5 0.0
22/06:00pm 20.2 20.0 14.6 70 3.3 E 9 13 5 7 1022.6 1022.4 0.0
22/05:30pm 20.2 19.7 15.0 72 3.1 ENE 11 15 6 8 1022.5 1022.3 0.0
22/05:00pm 20.3 18.7 14.9 71 3.2 E 17 20 9 11 1022.5 1022.3 0.0
22/04:30pm 20.9 19.2 14.8 68 3.6 E 17 22 9 12 1022.4 1022.2 0.0
22/04:00pm 22.2 20.8 14.6 62 4.5 E 15 20 8 11 1022.2 1022.0 0.0
22/03:30pm 22.9 21.9 14.5 59 5.0 E 13 19 7 10 1022.4 1022.2 0.0
22/03:00pm 23.2 22.2 14.5 58 5.1 E 13 15 7 8 1022.2 1022.0 0.0
22/02:30pm 24.1 23.4 15.3 58 5.3 E 13 17 7 9 1022.3 1022.1 0.0
22/02:00pm 23.7 22.9 15.2 59 5.1 E 13 15 7 8 1022.4 1022.2 0.0
22/01:30pm 23.3 22.7 15.6 62 4.6 ESE 13 17 7 9 1022.7 1022.5 0.0
22/01:00pm 23.3 24.4 18.0 72 3.3 SE 9 13 5 7 1022.9 1022.7 0.0
22/12:30pm 23.2 24.0 18.1 73 3.2 SE 11 15 6 8 1023.2 1023.0 0.0
22/12:00pm 23.2 23.7 18.3 74 3.1 SE 13 15 7 8 1023.7 1023.5 0.0
22/11:30am 22.0 22.3 17.8 77 2.6 S 13 17 7 9 1024.4 1024.2 0.0
22/11:00am 21.7 21.9 17.7 78 2.5 S 13 15 7 8 1025.0 1024.8 0.0
22/10:30am 21.9 22.3 18.1 79 2.4 S 13 19 7 10 1024.9 1024.7 0.0
22/10:00am 21.0 21.2 17.6 81 2.1 S 13 17 7 9 1025.4 1025.2 0.0

Other Formats:

Comma delimited format used in spreadsheet applications
http://www.bom.gov.au/fwo/IDN60801/IDN60801.94599.axf

JavaScript Object Notation format (JSON) in row-major order
http://www.bom.gov.au/fwo/IDN60801/IDN60801.94599.json